• Join FlightAware (Why Join?)
  • Login
  • US Flag 
08:32PM EDT


 

Airport Tracker/Info


-or-


 

Live Flight TrackerFlight Track Log ✈ EJA589 ✈ 08-May-2013 ✈ KMSP - KPTK

Flight Track Log - Related Links

Times and Time Zones

All times are in EDT time to prevent confusion due to time zone crossing. See the EJA589 flight status page for this flight to view local times or setup timezone preferences in your user account.

Time Position Orientation Groundspeed Altitude Reporting Facility
EDT Latitude Longitude Course Direction KTS MPH feet Rate Location/Type
08:52PM 44.9000 -93.2833 282° West 222 255 4,300  Level Minneapolis TRACON
08:53PM 44.9022 -93.2986 282° West 220 253 5,000 2,820 Climbing Minneapolis Center
08:54PM 44.8961 -93.3958 265° West 255 293 8,100 3,240 Climbing Minneapolis Center
08:55PM 44.8517 -93.4500 221° Southwest 260 299 11,700 3,240 Climbing Minneapolis Center
08:56PM 44.8050 -93.3358 120° Southeast 300 345 14,900 2,460 Climbing Minneapolis Center
08:57PM 44.7869 -93.2092 101° East 329 379 16,900 1,980 Climbing Minneapolis Center
08:58PM 44.7639 -93.0614 102° East 358 412 19,000 2,220 Climbing Minneapolis Center
08:59PM 44.7411 -92.9194 103° East 368 423 21,500 2,160 Climbing Minneapolis Center
09:00PM 44.7206 -92.7747 101° East 374 430 24,000 2,340 Climbing Minneapolis Center
09:01PM 44.6958 -92.5983 101° East 382 440 26,900 2,280 Climbing Minneapolis Center
09:02PM 44.6500 -92.4606 115° Southeast 389 448 28,800 960 Climbing Minneapolis Center
09:03PM 44.5928 -92.3181 119° Southeast 409 471 29,000 60 Climbing Minneapolis Center
09:04PM 44.5156 -92.1422 122° Southeast 435 501 29,000  Level Minneapolis Center
09:05PM 44.4411 -92.0025 127° Southeast 444 511 29,000  Level Minneapolis Center
09:06PM 44.3694 -91.8600 125° Southeast 448 516 29,000  Level Minneapolis Center
09:07PM 44.3106 -91.7083 118° Southeast 445 512 29,000  Level Minneapolis Center
09:08PM 44.2536 -91.5525 117° Southeast 450 518 29,000  Level Minneapolis Center
09:09PM 44.1964 -91.3969 117° Southeast 452 520 29,000  Level Minneapolis Center
09:10PM 44.1331 -91.2275 117° Southeast 452 520 29,000  Level Minneapolis Center
09:11PM 44.0742 -91.0742 118° Southeast 452 520 29,000  Level Minneapolis Center
09:12PM 44.0131 -90.9231 119° Southeast 451 519 29,000  Level Minneapolis Center
09:13PM 43.9411 -90.7408 119° Southeast 451 519 29,000  Level Minneapolis Center
09:14PM 43.8811 -90.5889 119° Southeast 451 519 29,000  Level Minneapolis Center
09:15PM 43.8144 -90.4258 119° Southeast 455 524 29,000  Level Minneapolis Center
09:17PM 43.7569 -90.2869 120° Southeast 452 520 29,000  Level Minneapolis Center
09:18PM 43.6892 -90.1244 120° Southeast 453 521 29,000  Level Minneapolis Center
09:19PM 43.6083 -89.9239 119° Southeast 450 518 29,000  Level Minneapolis Center
09:19PM 43.5756 -89.8500 121° Southeast 451 519 29,000  Level Chicago Center
09:20PM 43.5217 -89.6928 115° Southeast 453 521 29,000  Level Chicago Center
09:21PM 43.4697 -89.5031 111° Southeast 454 522 29,000  Level Chicago Center
09:22PM 43.4247 -89.3414 111° Southeast 453 521 29,000  Level Chicago Center
09:23PM 43.3794 -89.1786 111° Southeast 455 524 29,000  Level Chicago Center
09:25PM 43.3331 -89.0183 112° Southeast 454 522 29,000  Level Chicago Center
09:26PM 43.2861 -88.8578 112° Southeast 456 525 29,000  Level Chicago Center
09:27PM 43.2297 -88.6728 113° Southeast 454 522 29,000  Level Chicago Center
09:28PM 43.1792 -88.5144 114° Southeast 459 528 29,000  Level Chicago Center
09:29PM 43.1303 -88.3561 113° Southeast 456 525 29,000  Level Chicago Center
09:30PM 43.1131 -88.1911 98° East 440 506 29,000  Level Chicago Center
09:31PM 43.1217 -88.0219 86° East 446 513 29,000  Level Chicago Center
09:32PM 43.1300 -87.8325 86° East 433 498 29,000  Level Chicago Center
09:33PM 43.1361 -87.6683 87° East 432 497 29,000  Level Chicago Center
09:34PM 43.1394 -87.5033 111° Southeast 434 499 29,000  Level Chicago Center
09:35PM 43.1178 -87.3306 100° East 449 517 29,000  Level Chicago Center
09:36PM 43.0981 -87.1636 99° East 447 514 29,000  Level Chicago Center
09:37PM 43.0778 -86.9950 99° East 450 518 29,000  Level Chicago Center
09:38PM 43.0586 -86.8269 99° East 449 517 29,000  Level Chicago Center
09:39PM 43.0392 -86.6592 99° East 450 518 29,000  Level Chicago Center
09:40PM 43.0169 -86.4592 99° East 447 514 29,000  Level Chicago Center
09:41PM 42.9981 -86.2936 99° East 445 512 29,000  Level Chicago Center
09:42PM 42.9825 -86.1283 97° East 445 512 29,000 -120 Level Chicago Center
09:43PM 42.9661 -85.9672 98° East 447 514 28,800 -1,020 Descending Chicago Center
09:44PM 42.9508 -85.7842 96° East 417 480 26,900 -1,680 Descending Chicago Center
09:45PM 42.9364 -85.6283 97° East 416 479 25,400 -1,560 Descending Chicago Center
09:46PM 42.9178 -85.4678 99° East 427 491 23,800 -1,500 Descending Chicago Center
09:47PM 42.8994 -85.3094 99° East 426 490 22,300 -1,380 Descending Chicago Center
09:48PM 42.8839 -85.1556 98° East 413 475 21,000 -660 Descending Chicago Center
09:49PM 42.8706 -85.0053 97° East 403 464 21,000 -360 Level Chicago Center
09:50PM 42.8561 -84.8550 97° East 402 463 20,300 -1,560 Descending Chicago Center
09:51PM 42.8408 -84.6778 97° East 396 456 17,900 -2,160 Descending Chicago Center
09:52PM 42.8267 -84.5322 98° East 390 449 15,900 -2,040 Descending Chicago Center
09:53PM 42.8117 -84.3986 99° East 379 436 13,900 -2,100 Descending Cleveland Center
09:54PM 42.8061 -84.3192 95° East 352 405 12,700 -2,100 Descending Cleveland Center
09:54PM 42.7994 -84.2650 100° East 364 419 11,800 -2,280 Descending Cleveland Center
09:55PM 42.7964 -84.1628 92° East 287 330 9,700 -1,680 Descending Cleveland Center
09:56PM 42.7803 -84.0742 104° East 293 337 9,000 -840 Descending Cleveland Center
09:56PM 42.7708 -84.0481 116° Southeast 296 341 8,800 -1,140 Descending Cleveland Center
09:57PM 42.7458 -83.9761 115° Southeast 278 320 7,900 -1,200 Descending Cleveland Center
09:57PM 42.7381 -83.9558 118° Southeast 277 319 7,600 -1,200 Descending Cleveland Center
09:58PM 42.7108 -83.8836 117° Southeast 281 323 6,700 -1,200 Descending Cleveland Center
09:58PM 42.7072 -83.8667 106° East 275 316 6,400 -1,320 Descending Cleveland Center
09:59PM 42.6825 -83.7889 113° Southeast 271 312 5,400 -1,140 Descending Cleveland Center
09:59PM 42.6747 -83.7633 112° Southeast 275 316 5,300 -1,200 Descending Cleveland Center
10:00PM 42.6622 -83.6919 103° East 260 299 4,200 -1,260 Descending Cleveland Center
10:01PM 42.6586 -83.5872 93° East 203 234 2,900 -900 Descending Cleveland Center
10:02PM 42.6603 -83.5225 88° East 143 165 2,200 -720 Descending Cleveland Center
10:03PM 42.6617 -83.4661 88° East 109 125 1,400 -780 Descending Cleveland Center
10:05PM 42.6500 -83.4167 90° East  Level FlightAware Approximate
10:12PM 42.6656 -83.4205 90° East  Level Estimated
10:13PM 42.6656 -83.4205 90° East  Level Estimated